createdAt,value
2019-01-22T00:00:40.612Z,35.83
2019-01-22T00:03:10.085Z,34.03
2019-01-22T00:05:39.588Z,34.53
2019-01-22T00:08:09.096Z,34.85
2019-01-22T00:10:38.597Z,34.35
2019-01-22T00:13:08.546Z,38.75
2019-01-22T00:15:38.105Z,36.05
2019-01-22T00:18:07.660Z,33.00
2019-01-22T00:20:37.418Z,35.65
2019-01-22T00:23:06.887Z,33.38
2019-01-22T00:25:36.757Z,34.75
2019-01-22T00:28:06.681Z,36.38
2019-01-22T00:30:36.290Z,34.90
2019-01-22T00:33:05.759Z,34.65
2019-01-22T00:35:35.536Z,31.60
2019-01-22T00:38:05.141Z,34.55
2019-01-22T00:40:34.684Z,32.85
2019-01-22T00:43:04.343Z,32.83
2019-01-22T00:45:33.969Z,31.75
2019-01-22T00:48:04.334Z,32.25
2019-01-22T00:50:33.940Z,32.95
2019-01-22T00:53:09.749Z,32.50
2019-01-22T00:55:34.721Z,31.80
2019-01-22T00:58:04.649Z,32.80
2019-01-22T01:00:34.415Z,32.13
2019-01-22T01:03:04.155Z,32.45
2019-01-22T01:05:33.769Z,29.52
2019-01-22T01:08:03.524Z,30.55
2019-01-22T01:10:33.091Z,33.38
2019-01-22T01:13:02.629Z,30.48
2019-01-22T01:15:32.105Z,30.48
2019-01-22T01:18:01.981Z,31.05
2019-01-22T01:20:31.446Z,32.03
2019-01-22T01:23:00.936Z,32.38
2019-01-22T01:25:30.476Z,31.73
2019-01-22T01:28:00.046Z,33.35
2019-01-22T01:30:29.572Z,29.67
2019-01-22T01:32:59.040Z,33.45
2019-01-22T01:35:29.379Z,32.45
2019-01-22T01:37:59.388Z,29.37
2019-01-22T01:40:29.802Z,32.80
2019-01-22T01:42:59.293Z,29.27
2019-01-22T01:45:29.106Z,29.37
2019-01-22T01:47:58.614Z,31.77
2019-01-22T01:50:28.105Z,29.30
2019-01-22T01:52:57.596Z,30.57
2019-01-22T01:55:27.179Z,28.70
2019-01-22T01:57:57.777Z,27.52
2019-01-22T02:00:27.308Z,29.63
2019-01-22T02:02:56.827Z,28.75
2019-01-22T02:05:26.305Z,29.20
2019-01-22T02:07:55.910Z,29.90
2019-01-22T02:10:25.495Z,33.00
2019-01-22T02:12:59.049Z,29.35
2019-01-22T02:15:31.691Z,29.20
2019-01-22T02:18:06.981Z,29.25
2019-01-22T02:20:45.487Z,28.55
2019-01-22T02:23:18.485Z,27.25
2019-01-22T02:26:00.434Z,28.70
2019-01-22T02:28:42.068Z,28.07
2019-01-22T02:31:29.872Z,25.88
2019-01-22T02:34:05.323Z,27.67
2019-01-22T02:36:43.372Z,27.93
2019-01-22T02:39:21.541Z,27.82
2019-01-22T02:41:54.182Z,28.98
2019-01-22T02:44:49.281Z,27.17
2019-01-22T02:47:33.658Z,29.45
2019-01-22T02:50:11.819Z,27.10
2019-01-22T02:52:49.980Z,28.38
2019-01-22T02:55:25.360Z,26.45
2019-01-22T02:58:06.800Z,27.42
2019-01-22T03:00:59.981Z,27.52
2019-01-22T03:03:48.947Z,26.50
2019-01-22T03:06:36.180Z,25.85
2019-01-22T03:09:11.618Z,26.77
2019-01-22T03:11:49.933Z,28.62
2019-01-22T03:14:39.013Z,26.95
2019-01-22T03:20:19.833Z,28.90
2019-01-22T03:23:12.356Z,26.75
2019-01-22T03:26:00.605Z,25.95
2019-01-22T03:35:37.529Z,26.82
2019-01-22T03:38:39.036Z,26.15
2019-01-22T03:41:49.660Z,24.85
2019-01-22T03:51:03.619Z,25.70
2019-01-22T03:53:45.175Z,25.08
2019-01-22T03:56:46.918Z,25.68
2019-01-22T03:59:25.622Z,24.63
2019-01-22T04:02:15.590Z,24.75
2019-01-22T04:04:46.351Z,25.88
2019-01-22T04:07:20.042Z,25.68
2019-01-22T04:10:00.254Z,24.35
2019-01-22T04:12:34.737Z,24.75
2019-01-22T04:15:12.559Z,25.05
2019-01-22T04:17:43.308Z,24.25
2019-01-22T04:20:20.995Z,24.70
2019-01-22T04:33:22.357Z,22.48
2019-01-22T04:49:31.045Z,22.70
2019-01-22T04:56:01.035Z,24.15
2019-01-22T05:02:45.631Z,25.05
2019-01-22T05:09:20.244Z,24.20
2019-01-22T05:16:12.784Z,22.93
2019-01-22T05:19:15.004Z,23.52
2019-01-22T05:22:28.006Z,23.45
2019-01-22T05:25:24.213Z,21.75
2019-01-22T05:28:33.372Z,22.27
2019-01-22T05:35:02.420Z,24.52
2019-01-22T05:38:00.270Z,24.27
2019-01-22T05:44:39.014Z,22.65
2019-01-22T05:47:28.363Z,21.77
2019-01-22T05:50:19.987Z,22.90
2019-01-22T05:53:16.738Z,26.10
2019-01-22T05:56:50.240Z,22.13
2019-01-22T06:03:48.848Z,22.70
2019-01-22T06:07:26.888Z,21.65
2019-01-22T06:18:10.360Z,21.75
2019-01-22T06:21:34.023Z,19.70
2019-01-22T06:37:06.144Z,21.20
2019-01-22T06:42:34.868Z,21.40
2019-01-22T06:52:37.771Z,21.12
2019-01-22T06:55:40.266Z,20.70
2019-01-22T07:06:04.068Z,20.50
2019-01-22T07:26:37.822Z,22.10
2019-01-22T07:40:28.371Z,21.23
2019-01-22T07:43:38.281Z,20.23
2019-01-22T07:57:13.517Z,21.30
2019-01-22T08:00:09.212Z,20.30
2019-01-22T08:13:22.427Z,25.02
2019-01-22T08:23:10.312Z,24.47
2019-01-22T08:43:20.169Z,27.82
2019-01-22T08:50:02.621Z,20.40
2019-01-22T08:53:29.939Z,21.27
2019-01-22T09:23:11.431Z,22.45
2019-01-22T09:26:52.136Z,25.88
2019-01-22T09:46:57.615Z,22.85
2019-01-22T09:49:29.302Z,23.07
2019-01-22T10:18:41.736Z,25.23
2019-01-22T10:21:13.064Z,23.90
2019-01-22T10:24:45.238Z,23.50
2019-01-22T10:27:29.764Z,24.10
2019-01-22T10:30:15.121Z,27.03
2019-01-22T10:35:57.306Z,27.00
2019-01-22T10:38:58.695Z,24.43
2019-01-22T10:41:45.249Z,25.83
2019-01-22T10:44:56.132Z,24.97
2019-01-22T10:47:48.906Z,23.60
2019-01-22T10:50:30.017Z,21.27
2019-01-22T10:53:27.004Z,23.00
2019-01-22T10:56:35.746Z,22.70
2019-01-22T10:59:30.767Z,23.40
2019-01-22T11:05:33.067Z,22.87
2019-01-22T11:14:28.803Z,22.37
2019-01-22T11:20:23.362Z,22.50
2019-01-22T11:23:09.597Z,20.97
2019-01-22T11:26:11.499Z,21.60
2019-01-22T11:29:07.512Z,23.53
2019-01-22T11:31:55.389Z,23.20
2019-01-22T11:34:41.355Z,23.30
2019-01-22T11:37:53.693Z,22.30
2019-01-22T11:43:44.993Z,23.70
2019-01-22T11:46:39.584Z,23.73
2019-01-22T11:49:37.528Z,20.90
2019-01-22T12:16:58.043Z,23.20
2019-01-22T12:24:14.380Z,23.83
2019-01-22T12:30:30.498Z,25.53
2019-01-22T12:42:44.621Z,26.03
2019-01-22T12:46:36.918Z,26.63
2019-01-22T12:56:20.301Z,26.43
2019-01-22T13:02:56.511Z,24.37
2019-01-22T13:06:00.497Z,22.43
2019-01-22T13:12:26.251Z,25.87
2019-01-22T13:18:27.548Z,27.93
2019-01-22T13:23:52.473Z,28.87
2019-01-22T13:33:23.524Z,26.73
2019-01-22T13:36:29.193Z,24.90
2019-01-22T13:39:26.527Z,27.00
2019-01-22T13:42:08.506Z,25.87
2019-01-22T13:48:47.151Z,28.50
2019-01-22T13:51:45.282Z,24.23
2019-01-22T13:58:07.023Z,27.60
2019-01-22T14:00:59.755Z,26.00
2019-01-22T14:23:46.633Z,28.80
2019-01-22T14:33:11.745Z,27.90
2019-01-22T14:36:24.540Z,24.50
2019-01-22T14:39:26.702Z,27.30
2019-01-22T14:41:58.017Z,26.67
2019-01-22T14:44:46.996Z,25.20
2019-01-22T14:48:25.812Z,25.50
2019-01-22T14:51:26.809Z,25.17
2019-01-22T15:01:05.327Z,26.03
2019-01-22T15:16:44.500Z,24.83
2019-01-22T15:19:40.064Z,28.27
2019-01-22T15:31:44.181Z,26.40
2019-01-22T15:34:13.710Z,29.20
2019-01-22T15:36:43.225Z,26.20
2019-01-22T15:39:12.714Z,27.97
2019-01-22T15:41:42.169Z,31.00
2019-01-22T15:44:11.669Z,26.43
2019-01-22T15:46:41.137Z,27.70
2019-01-22T15:49:10.643Z,30.17
2019-01-22T15:51:40.121Z,29.12
2019-01-22T15:54:09.634Z,29.23
2019-01-22T15:56:39.112Z,28.93
2019-01-22T15:59:08.590Z,31.53
2019-01-22T16:01:38.157Z,29.63
2019-01-22T16:04:07.666Z,31.87
2019-01-22T16:06:37.155Z,28.93
2019-01-22T16:09:07.617Z,29.20
2019-01-22T16:11:37.107Z,32.27
2019-01-22T16:14:06.611Z,33.90
2019-01-22T16:16:36.082Z,31.40
2019-01-22T16:19:06.545Z,27.20
2019-01-22T16:21:36.018Z,31.30
2019-01-22T16:24:05.521Z,29.05
2019-01-22T16:26:35.046Z,27.82
2019-01-22T16:29:05.476Z,29.63
2019-01-22T16:31:34.975Z,30.67
2019-01-22T16:34:04.545Z,28.98
2019-01-22T16:36:34.030Z,28.87
2019-01-22T16:39:05.358Z,29.70
2019-01-22T16:41:34.856Z,26.75
2019-01-22T16:44:04.397Z,26.37
2019-01-22T16:46:33.988Z,29.70
2019-01-22T16:49:03.509Z,28.32
2019-01-22T16:51:32.981Z,28.17
2019-01-22T16:54:02.583Z,28.77
2019-01-22T16:56:32.225Z,28.25
2019-01-22T16:59:01.733Z,31.33
2019-01-22T17:01:31.212Z,29.45
2019-01-22T17:04:00.703Z,29.02
2019-01-22T17:06:30.193Z,27.17
2019-01-22T17:08:59.717Z,27.37
2019-01-22T17:11:29.203Z,28.07
2019-01-22T17:13:58.712Z,29.55
2019-01-22T17:16:28.239Z,27.82
2019-01-22T17:18:57.781Z,26.50
2019-01-22T17:21:27.267Z,30.02
2019-01-22T17:23:56.789Z,30.45
2019-01-22T17:26:26.274Z,30.30
2019-01-22T17:28:55.762Z,30.17
2019-01-22T17:31:26.912Z,27.48
2019-01-22T17:33:57.570Z,29.80
2019-01-22T17:36:27.068Z,29.18
2019-01-22T17:38:56.588Z,28.77
2019-01-22T17:41:26.071Z,31.70
2019-01-22T17:43:57.117Z,33.78
2019-01-22T17:46:26.643Z,28.95
2019-01-22T17:48:57.113Z,28.10
2019-01-22T17:51:32.491Z,29.27
2019-01-22T17:54:01.994Z,30.10
2019-01-22T17:56:31.473Z,27.52
2019-01-22T17:59:01.593Z,30.52
2019-01-22T18:01:31.072Z,30.32
2019-01-22T18:04:00.541Z,31.57
2019-01-22T18:06:30.065Z,28.50
2019-01-22T18:08:59.545Z,32.58
2019-01-22T18:11:29.043Z,28.10
2019-01-22T18:13:58.541Z,30.15
2019-01-22T18:16:28.043Z,32.43
2019-01-22T18:18:57.560Z,30.80
2019-01-22T18:21:27.061Z,31.50
2019-01-22T18:23:56.597Z,32.73
2019-01-22T18:26:26.082Z,29.98
2019-01-22T18:28:55.570Z,32.13
2019-01-22T18:31:25.999Z,30.95
2019-01-22T18:33:55.480Z,30.47
2019-01-22T18:36:24.961Z,28.63
2019-01-22T18:38:54.472Z,32.80
2019-01-22T18:41:25.936Z,32.77
2019-01-22T18:43:55.477Z,31.83
2019-01-22T18:46:24.952Z,32.00
2019-01-22T18:48:54.735Z,32.27
2019-01-22T18:51:24.302Z,31.90
2019-01-22T18:53:53.857Z,32.03
2019-01-22T18:56:24.354Z,35.85
2019-01-22T18:58:53.876Z,34.95
2019-01-22T19:01:23.432Z,33.33
2019-01-22T19:03:53.018Z,33.05
2019-01-22T19:06:22.509Z,31.70
2019-01-22T19:08:51.982Z,32.88
2019-01-22T19:11:21.502Z,31.23
2019-01-22T19:13:50.977Z,34.10
2019-01-22T19:16:20.475Z,31.93
2019-01-22T19:18:50.135Z,32.58
2019-01-22T19:21:19.627Z,35.55
2019-01-22T19:23:49.104Z,33.85
2019-01-22T19:26:18.902Z,34.20
2019-01-22T19:28:48.407Z,36.53
2019-01-22T19:31:17.934Z,32.60
2019-01-22T19:33:47.846Z,34.80
2019-01-22T19:36:17.509Z,36.05
2019-01-22T19:38:48.152Z,35.83
2019-01-22T19:41:18.597Z,34.10
2019-01-22T19:43:50.176Z,32.63
2019-01-22T19:46:21.142Z,35.30
2019-01-22T19:48:50.629Z,33.92
2019-01-22T19:51:20.513Z,33.45
2019-01-22T19:53:50.360Z,32.80
2019-01-22T19:56:20.200Z,34.10
2019-01-22T19:58:49.721Z,34.18
2019-01-22T20:01:19.217Z,32.25
2019-01-22T20:03:48.691Z,33.53
2019-01-22T20:06:18.194Z,32.98
2019-01-22T20:08:47.679Z,31.82
2019-01-22T20:11:17.185Z,33.75
2019-01-22T20:13:46.861Z,32.63
2019-01-22T20:16:16.334Z,30.77
2019-01-22T20:18:45.815Z,33.70
2019-01-22T20:21:15.353Z,33.63
2019-01-22T20:23:44.849Z,32.33
2019-01-22T20:26:14.400Z,30.23
2019-01-22T20:28:43.908Z,31.20
2019-01-22T20:31:13.422Z,32.03
2019-01-22T20:33:42.933Z,31.25
2019-01-22T20:36:12.421Z,29.95
2019-01-22T20:38:41.965Z,32.53
2019-01-22T20:41:11.473Z,31.97
2019-01-22T20:43:40.981Z,33.20
2019-01-22T20:46:10.489Z,31.62
2019-01-22T20:48:40.347Z,30.40
2019-01-22T20:51:09.825Z,32.85
2019-01-22T20:53:39.333Z,33.02
2019-01-22T20:56:08.813Z,32.80
2019-01-22T20:58:40.629Z,33.78
2019-01-22T21:01:09.512Z,32.50
2019-01-22T21:03:39.016Z,34.53
2019-01-22T21:06:08.517Z,33.50
2019-01-22T21:08:38.052Z,32.65
2019-01-22T21:11:07.529Z,31.17
2019-01-22T21:13:37.029Z,33.60
2019-01-22T21:16:06.516Z,35.20
2019-01-22T21:18:36.020Z,36.73
2019-01-22T21:21:05.568Z,36.53
2019-01-22T21:23:35.094Z,33.67
2019-01-22T21:26:04.629Z,35.38
2019-01-22T21:28:34.117Z,32.67
2019-01-22T21:31:03.633Z,33.60
2019-01-22T21:33:33.115Z,34.80
2019-01-22T21:36:02.602Z,32.40
2019-01-22T21:38:32.131Z,34.38
2019-01-22T21:41:01.615Z,32.58
2019-01-22T21:43:31.092Z,32.35
2019-01-22T21:46:00.604Z,33.28
2019-01-22T21:48:30.125Z,33.73
2019-01-22T21:50:59.606Z,32.35
2019-01-22T21:53:29.318Z,32.63
2019-01-22T21:55:58.783Z,36.77
2019-01-22T21:58:28.274Z,31.15
2019-01-22T22:00:57.769Z,32.65
2019-01-22T22:03:27.272Z,31.37
2019-01-22T22:05:56.752Z,31.93
2019-01-22T22:08:26.279Z,30.77
2019-01-22T22:10:55.762Z,31.00
2019-01-22T22:13:25.240Z,31.77
2019-01-22T22:15:54.751Z,30.32
2019-01-22T22:18:24.232Z,30.48
2019-01-22T22:20:53.782Z,32.08
2019-01-22T22:23:23.307Z,32.15
2019-01-22T22:25:52.784Z,30.57
2019-01-22T22:28:22.258Z,32.90
2019-01-22T22:30:51.784Z,33.70
2019-01-22T22:33:21.253Z,31.40
2019-01-22T22:35:50.727Z,32.28
2019-01-22T22:38:20.231Z,34.25
2019-01-22T22:40:49.720Z,29.63
2019-01-22T22:43:19.192Z,31.90
2019-01-22T22:45:48.725Z,31.17
2019-01-22T22:48:18.210Z,31.85
2019-01-22T22:50:47.882Z,37.65
2019-01-22T22:53:17.416Z,29.85
2019-01-22T22:55:46.884Z,28.47
2019-01-22T22:58:21.908Z,28.73
2019-01-22T23:00:50.642Z,30.40
2019-01-22T23:03:20.281Z,31.00
2019-01-22T23:05:50.889Z,31.80
2019-01-22T23:08:20.368Z,32.15
2019-01-22T23:10:49.872Z,30.82
2019-01-22T23:13:19.377Z,32.50
2019-01-22T23:15:49.069Z,31.50
2019-01-22T23:18:18.908Z,31.57
2019-01-22T23:20:48.397Z,33.10
2019-01-22T23:23:17.907Z,32.73
2019-01-22T23:25:47.713Z,34.00
2019-01-22T23:28:17.209Z,31.95
2019-01-22T23:30:46.715Z,34.67
2019-01-22T23:33:17.374Z,32.30
2019-01-22T23:35:46.927Z,31.07
2019-01-22T23:38:16.436Z,32.03
2019-01-22T23:40:45.940Z,33.95
2019-01-22T23:43:15.429Z,33.00
2019-01-22T23:45:44.902Z,33.00
2019-01-22T23:48:14.418Z,32.83
2019-01-22T23:50:43.882Z,34.93
2019-01-22T23:53:13.364Z,32.55
2019-01-22T23:55:43.834Z,34.85
2019-01-22T23:58:13.332Z,33.67
